Time;durP1;ratioP1;P1;durP2;ratioP2;P2;SDS_P1;SDS_P2;PMS_P1;PMS_P2;Temp;Humidity;BMP_temperature;BMP_pressure;BME280_temperature;BME280_humidity;BME280_pressure;Samples;Min_cycle;Max_cycle;Signal;HPM_P1;HPM_P2
2021/07/18 00:00:19;;;;;;;11.65;8.85;;;;;;;;;;4972732;28;20028;-34
2021/07/18 00:02:44;;;;;;;13.82;9.35;;;;;;;;;;4968651;28;20023;-35
2021/07/18 00:05:10;;;;;;;13.82;9.52;;;;;;;;;;4960227;28;20027;-35
2021/07/18 00:07:36;;;;;;;14.70;10.38;;;;;;;;;;4965249;28;20430;-34
2021/07/18 00:10:02;;;;;;;12.02;9.05;;;;;;;;;;4967261;28;20022;-34
2021/07/18 00:12:27;;;;;;;11.85;8.85;;;;;;;;;;4966568;28;20075;-34
2021/07/18 00:14:53;;;;;;;12.70;8.35;;;;;;;;;;4968240;28;20034;-34
2021/07/18 00:17:18;;;;;;;11.88;8.15;;;;;;;;;;4968240;28;20073;-34
2021/07/18 00:19:43;;;;;;;12.82;8.80;;;;;;;;;;4968039;28;20019;-33
2021/07/18 00:22:09;;;;;;;16.08;8.77;;;;;;;;;;4968268;28;20043;-34
2021/07/18 00:24:35;;;;;;;12.52;8.20;;;;;;;;;;4965263;28;20051;-34
2021/07/18 00:27:00;;;;;;;11.95;8.23;;;;;;;;;;4967917;28;20038;-34
2021/07/18 00:29:25;;;;;;;12.32;7.57;;;;;;;;;;4968525;28;20026;-33
2021/07/18 00:31:52;;;;;;;12.05;7.65;;;;;;;;;;4967329;28;20023;-34
2021/07/18 00:34:17;;;;;;;12.40;7.88;;;;;;;;;;4977280;28;20029;-36
2021/07/18 00:36:44;;;;;;;10.50;7.28;;;;;;;;;;4969839;28;20504;-36
2021/07/18 00:39:09;;;;;;;10.00;6.65;;;;;;;;;;4968589;28;20043;-36
2021/07/18 00:41:34;;;;;;;12.45;7.60;;;;;;;;;;4967257;28;20027;-34
2021/07/18 00:44:00;;;;;;;11.32;7.20;;;;;;;;;;4968253;28;20034;-34
2021/07/18 00:46:25;;;;;;;9.73;7.13;;;;;;;;;;4968794;28;20034;-34
2021/07/18 00:48:50;;;;;;;10.02;7.00;;;;;;;;;;4967578;28;20161;-34
2021/07/18 00:51:16;;;;;;;10.00;6.90;;;;;;;;;;4968265;28;20057;-36
2021/07/18 00:53:42;;;;;;;10.18;7.43;;;;;;;;;;4967276;28;20490;-34
2021/07/18 00:56:08;;;;;;;8.85;7.07;;;;;;;;;;4968288;28;20038;-35
2021/07/18 00:58:34;;;;;;;10.00;6.47;;;;;;;;;;4971583;28;20029;-35
2021/07/18 01:01:00;;;;;;;11.38;6.57;;;;;;;;;;4967953;28;20026;-34
2021/07/18 01:03:27;;;;;;;13.60;6.82;;;;;;;;;;4968161;28;20026;-35
2021/07/18 01:05:53;;;;;;;12.10;6.72;;;;;;;;;;4967860;28;20027;-34
2021/07/18 01:08:18;;;;;;;12.30;6.63;;;;;;;;;;4967646;28;20244;-35
2021/07/18 01:10:44;;;;;;;11.57;6.50;;;;;;;;;;4967169;28;20724;-34
2021/07/18 01:13:09;;;;;;;11.48;6.70;;;;;;;;;;4967366;28;20025;-34
2021/07/18 01:15:36;;;;;;;10.65;6.90;;;;;;;;;;4966259;28;20027;-34
2021/07/18 01:18:01;;;;;;;9.82;6.85;;;;;;;;;;4967014;28;20608;-36
2021/07/18 01:20:27;;;;;;;9.77;6.30;;;;;;;;;;4967687;28;20598;-35
2021/07/18 01:22:52;;;;;;;9.48;6.28;;;;;;;;;;4966070;28;20023;-35
2021/07/18 01:25:18;;;;;;;9.73;6.25;;;;;;;;;;4973487;28;20057;-35
2021/07/18 01:27:44;;;;;;;9.70;6.65;;;;;;;;;;4967623;28;20027;-35
2021/07/18 01:30:13;;;;;;;8.43;6.25;;;;;;;;;;4967565;28;20041;-37
2021/07/18 01:32:38;;;;;;;10.93;6.07;;;;;;;;;;4967596;28;20494;-35
2021/07/18 01:35:05;;;;;;;8.88;6.35;;;;;;;;;;4967230;28;20034;-35
2021/07/18 01:37:31;;;;;;;10.02;6.78;;;;;;;;;;4969656;28;20099;-35
2021/07/18 01:39:57;;;;;;;8.95;6.30;;;;;;;;;;4967766;28;20038;-35
2021/07/18 01:42:24;;;;;;;9.98;6.18;;;;;;;;;;4966482;28;20026;-36
2021/07/18 01:44:50;;;;;;;8.60;6.22;;;;;;;;;;4968023;28;20023;-35
2021/07/18 01:47:15;;;;;;;8.80;5.60;;;;;;;;;;4967731;28;20034;-36
2021/07/18 01:49:41;;;;;;;9.25;6.18;;;;;;;;;;4979082;28;20022;-36
2021/07/18 01:52:07;;;;;;;11.05;6.40;;;;;;;;;;4986385;28;20516;-35
2021/07/18 01:54:32;;;;;;;7.80;5.72;;;;;;;;;;4972880;28;20057;-36
2021/07/18 01:57:16;;;;;;;10.68;5.80;;;;;;;;;;4965865;28;20023;-35
2021/07/18 01:59:42;;;;;;;6.60;5.15;;;;;;;;;;4977391;28;20022;-35
2021/07/18 02:02:08;;;;;;;8.15;5.47;;;;;;;;;;4965223;28;20738;-36
2021/07/18 02:04:33;;;;;;;9.27;5.10;;;;;;;;;;4964721;28;20034;-35
2021/07/18 02:06:59;;;;;;;8.05;5.47;;;;;;;;;;4964850;28;20025;-36
2021/07/18 02:09:24;;;;;;;7.30;4.97;;;;;;;;;;4965607;28;20030;-36
2021/07/18 02:11:49;;;;;;;10.57;5.28;;;;;;;;;;4964251;28;20101;-35
2021/07/18 02:14:15;;;;;;;8.57;4.72;;;;;;;;;;4968299;28;20043;-35
2021/07/18 02:16:40;;;;;;;9.27;5.47;;;;;;;;;;4967007;28;20074;-36
2021/07/18 02:19:08;;;;;;;10.00;5.22;;;;;;;;;;4966830;28;20077;-35
2021/07/18 02:21:33;;;;;;;9.95;5.47;;;;;;;;;;4967446;28;20027;-36
2021/07/18 02:23:58;;;;;;;8.20;4.30;;;;;;;;;;4967252;28;20026;-35
2021/07/18 02:26:29;;;;;;;7.45;4.20;;;;;;;;;;4966867;28;20022;-35
2021/07/18 02:28:54;;;;;;;6.05;4.03;;;;;;;;;;4966619;28;20031;-35
2021/07/18 02:31:21;;;;;;;6.85;5.05;;;;;;;;;;4966916;28;20033;-35
2021/07/18 02:33:46;;;;;;;8.90;4.13;;;;;;;;;;4966416;28;20030;-36
2021/07/18 02:36:11;;;;;;;7.47;4.50;;;;;;;;;;4969999;28;20027;-37
2021/07/18 02:38:37;;;;;;;5.63;4.10;;;;;;;;;;4976890;28;20445;-35
2021/07/18 02:41:02;;;;;;;6.05;3.80;;;;;;;;;;4989451;28;20027;-35
2021/07/18 02:43:28;;;;;;;7.28;4.05;;;;;;;;;;4988989;28;20029;-36
2021/07/18 02:45:53;;;;;;;7.25;4.63;;;;;;;;;;4989502;28;20037;-35
2021/07/18 02:48:18;;;;;;;8.18;4.10;;;;;;;;;;4974685;28;20434;-34
2021/07/18 02:50:44;;;;;;;10.15;4.55;;;;;;;;;;4970324;28;20466;-35
2021/07/18 02:53:11;;;;;;;12.27;4.63;;;;;;;;;;4974279;28;20026;-36
2021/07/18 02:55:36;;;;;;;7.28;4.68;;;;;;;;;;4970524;28;20027;-35
2021/07/18 02:58:01;;;;;;;7.93;4.60;;;;;;;;;;4970159;28;20022;-34
2021/07/18 03:00:27;;;;;;;9.48;4.63;;;;;;;;;;4964177;28;20034;-34
2021/07/18 03:02:52;;;;;;;6.85;4.15;;;;;;;;;;4961072;28;20522;-38
2021/07/18 03:05:18;;;;;;;6.95;4.50;;;;;;;;;;4971928;28;20030;-35
2021/07/18 03:07:46;;;;;;;8.35;4.18;;;;;;;;;;4969843;28;20394;-36
2021/07/18 03:10:16;;;;;;;5.65;3.40;;;;;;;;;;4970033;28;20019;-38
2021/07/18 03:12:41;;;;;;;8.52;4.15;;;;;;;;;;4970313;28;20058;-35
2021/07/18 03:15:10;;;;;;;7.20;3.65;;;;;;;;;;4969804;28;20116;-35
2021/07/18 03:17:36;;;;;;;6.47;4.03;;;;;;;;;;4969421;28;20062;-36
2021/07/18 03:20:06;;;;;;;7.63;3.80;;;;;;;;;;4970171;28;20089;-35
2021/07/18 03:22:32;;;;;;;8.00;4.38;;;;;;;;;;4969552;28;20376;-35
2021/07/18 03:24:58;;;;;;;7.10;4.10;;;;;;;;;;4969665;28;20023;-35
2021/07/18 03:27:24;;;;;;;7.70;4.07;;;;;;;;;;4967233;28;20058;-37
2021/07/18 03:29:49;;;;;;;8.93;4.38;;;;;;;;;;4982663;28;20145;-35
2021/07/18 03:32:14;;;;;;;8.40;4.40;;;;;;;;;;4986843;28;20482;-37
2021/07/18 03:34:40;;;;;;;8.32;4.10;;;;;;;;;;4970450;28;20808;-36
2021/07/18 03:37:05;;;;;;;8.30;3.70;;;;;;;;;;4974156;28;20027;-37
2021/07/18 03:39:32;;;;;;;7.50;4.20;;;;;;;;;;4967086;28;20053;-35
2021/07/18 03:41:57;;;;;;;6.60;4.15;;;;;;;;;;4967139;28;20101;-36
2021/07/18 03:44:22;;;;;;;7.18;3.67;;;;;;;;;;4966905;28;20400;-38
2021/07/18 03:46:47;;;;;;;7.38;4.38;;;;;;;;;;4974019;28;20027;-35
2021/07/18 03:49:14;;;;;;;7.75;4.05;;;;;;;;;;4970522;28;20026;-36
2021/07/18 03:51:40;;;;;;;6.57;3.58;;;;;;;;;;4984207;28;20032;-35
2021/07/18 03:54:05;;;;;;;7.13;3.85;;;;;;;;;;4965726;28;20027;-35
2021/07/18 03:56:30;;;;;;;6.40;4.10;;;;;;;;;;4950247;28;20035;-35
2021/07/18 03:58:56;;;;;;;7.00;3.72;;;;;;;;;;4961678;28;20053;-35
2021/07/18 04:01:21;;;;;;;6.10;3.50;;;;;;;;;;4987969;28;20037;-35
2021/07/18 04:03:47;;;;;;;5.97;3.08;;;;;;;;;;4986233;28;20030;-35
2021/07/18 04:06:16;;;;;;;7.65;3.85;;;;;;;;;;4969414;28;20529;-36
2021/07/18 04:08:42;;;;;;;7.38;3.75;;;;;;;;;;4968828;28;20030;-35
2021/07/18 04:11:08;;;;;;;7.20;3.72;;;;;;;;;;4968992;28;20111;-35
2021/07/18 04:13:34;;;;;;;7.35;3.70;;;;;;;;;;4968988;28;20042;-35
2021/07/18 04:16:00;;;;;;;5.47;3.78;;;;;;;;;;4968390;28;20026;-35
2021/07/18 04:18:25;;;;;;;5.93;3.67;;;;;;;;;;4968054;28;20025;-36
2021/07/18 04:20:50;;;;;;;5.65;4.07;;;;;;;;;;4969130;28;20031;-36
2021/07/18 04:23:16;;;;;;;6.45;4.00;;;;;;;;;;4966945;28;20027;-36
2021/07/18 04:25:43;;;;;;;8.30;3.75;;;;;;;;;;4968507;28;20110;-37
2021/07/18 04:28:08;;;;;;;5.93;3.80;;;;;;;;;;4980082;28;20561;-36
2021/07/18 04:30:34;;;;;;;5.80;3.58;;;;;;;;;;4980022;28;20117;-36
2021/07/18 04:32:59;;;;;;;6.07;3.58;;;;;;;;;;4979627;28;20134;-37
2021/07/18 04:35:24;;;;;;;10.40;3.83;;;;;;;;;;4966758;28;20031;-36
2021/07/18 04:37:50;;;;;;;5.93;3.95;;;;;;;;;;4966102;28;20030;-35
2021/07/18 04:40:15;;;;;;;8.32;4.38;;;;;;;;;;4966314;28;20023;-35
2021/07/18 04:42:41;;;;;;;6.55;3.72;;;;;;;;;;4966263;28;20414;-35
2021/07/18 04:45:07;;;;;;;7.72;3.38;;;;;;;;;;4965791;28;20027;-36
2021/07/18 04:47:43;;;;;;;5.97;3.33;;;;;;;;;;4978813;28;20449;-36
2021/07/18 04:50:08;;;;;;;9.18;3.80;;;;;;;;;;4956968;28;20023;-35
2021/07/18 04:52:33;;;;;;;6.03;3.75;;;;;;;;;;4958612;28;20037;-35
2021/07/18 04:54:59;;;;;;;8.18;3.58;;;;;;;;;;4968630;28;20490;-35
2021/07/18 04:57:24;;;;;;;5.65;3.58;;;;;;;;;;4966885;28;20114;-35
2021/07/18 04:59:50;;;;;;;7.03;3.47;;;;;;;;;;4971627;28;20038;-35
2021/07/18 05:02:15;;;;;;;7.97;3.92;;;;;;;;;;4968756;28;20034;-35
2021/07/18 05:04:40;;;;;;;6.97;3.42;;;;;;;;;;4975173;28;20066;-35
2021/07/18 05:07:07;;;;;;;7.03;3.67;;;;;;;;;;4969523;28;20029;-35
2021/07/18 05:09:33;;;;;;;7.32;3.75;;;;;;;;;;4966413;28;20046;-37
2021/07/18 05:11:58;;;;;;;5.82;3.72;;;;;;;;;;4979521;28;20026;-36
2021/07/18 05:14:23;;;;;;;5.95;3.17;;;;;;;;;;4960962;28;20081;-37
2021/07/18 05:16:49;;;;;;;7.47;3.80;;;;;;;;;;4967595;28;20239;-35
2021/07/18 05:19:14;;;;;;;5.22;3.20;;;;;;;;;;4967788;28;20065;-38
2021/07/18 05:21:39;;;;;;;7.00;3.17;;;;;;;;;;4968182;28;20162;-35
2021/07/18 05:24:05;;;;;;;6.20;3.30;;;;;;;;;;4966659;28;20014;-35
2021/07/18 05:26:30;;;;;;;5.65;3.10;;;;;;;;;;4967173;28;20031;-36
2021/07/18 05:28:55;;;;;;;5.32;3.03;;;;;;;;;;4975442;28;20550;-36
2021/07/18 05:31:21;;;;;;;7.18;3.58;;;;;;;;;;4978590;28;20034;-35
2021/07/18 05:33:46;;;;;;;5.35;3.40;;;;;;;;;;4965737;28;20057;-37
2021/07/18 05:36:11;;;;;;;5.28;3.40;;;;;;;;;;4965347;28;20027;-36
2021/07/18 05:38:37;;;;;;;6.78;3.35;;;;;;;;;;4970448;28;20023;-35
2021/07/18 05:41:04;;;;;;;4.75;3.03;;;;;;;;;;4980936;28;20030;-36
2021/07/18 05:43:29;;;;;;;7.10;2.80;;;;;;;;;;4968799;28;20027;-35
2021/07/18 05:45:54;;;;;;;6.82;3.08;;;;;;;;;;4948330;28;20033;-36
2021/07/18 05:48:24;;;;;;;5.53;3.08;;;;;;;;;;4947703;28;20491;-35
2021/07/18 05:50:49;;;;;;;6.60;3.25;;;;;;;;;;4960140;28;20086;-37
2021/07/18 05:53:15;;;;;;;5.32;2.85;;;;;;;;;;4965933;28;20654;-37
2021/07/18 05:55:40;;;;;;;5.95;3.25;;;;;;;;;;4967104;28;20029;-35
2021/07/18 05:58:05;;;;;;;6.60;3.53;;;;;;;;;;4967180;28;20034;-35
2021/07/18 06:00:31;;;;;;;5.95;2.95;;;;;;;;;;4970964;28;20453;-35
2021/07/18 06:02:56;;;;;;;5.63;2.83;;;;;;;;;;4978462;28;20747;-38
2021/07/18 06:05:21;;;;;;;4.28;2.53;;;;;;;;;;4979974;28;20069;-37
2021/07/18 06:07:47;;;;;;;6.43;2.65;;;;;;;;;;4980544;28;20379;-36
2021/07/18 06:10:13;;;;;;;6.88;2.90;;;;;;;;;;4979242;28;20026;-36
2021/07/18 06:12:38;;;;;;;4.95;2.67;;;;;;;;;;4985259;28;20030;-40
2021/07/18 06:15:05;;;;;;;5.45;2.17;;;;;;;;;;4977176;28;20078;-36
2021/07/18 06:17:31;;;;;;;6.35;2.20;;;;;;;;;;4987129;28;20049;-35
2021/07/18 06:19:56;;;;;;;5.07;2.55;;;;;;;;;;4978288;28;20031;-36
2021/07/18 06:22:21;;;;;;;5.40;2.30;;;;;;;;;;4955839;28;20038;-37
2021/07/18 06:24:47;;;;;;;7.75;2.25;;;;;;;;;;4949109;28;20031;-40
2021/07/18 06:27:12;;;;;;;4.85;2.00;;;;;;;;;;4981866;28;20034;-36
2021/07/18 06:29:38;;;;;;;6.25;2.80;;;;;;;;;;4974596;28;20545;-35
2021/07/18 06:32:04;;;;;;;4.38;1.80;;;;;;;;;;4987890;28;20057;-38
2021/07/18 06:34:29;;;;;;;9.70;2.38;;;;;;;;;;4987879;28;20390;-39
2021/07/18 06:36:55;;;;;;;3.28;2.20;;;;;;;;;;4969911;28;20027;-41
2021/07/18 06:39:20;;;;;;;6.07;1.70;;;;;;;;;;4972747;28;20169;-38
2021/07/18 06:41:46;;;;;;;5.65;1.70;;;;;;;;;;4966847;28;20098;-38
2021/07/18 06:44:12;;;;;;;8.57;2.38;;;;;;;;;;4980773;28;20482;-38
2021/07/18 06:46:38;;;;;;;4.78;1.50;;;;;;;;;;4968595;28;20046;-39
2021/07/18 06:49:04;;;;;;;4.25;1.60;;;;;;;;;;4958118;28;20027;-37
2021/07/18 06:51:29;;;;;;;3.45;1.60;;;;;;;;;;4966777;28;20553;-37
2021/07/18 06:53:55;;;;;;;6.18;1.70;;;;;;;;;;4969746;28;20031;-38
2021/07/18 06:56:20;;;;;;;3.03;1.48;;;;;;;;;;4970029;28;20054;-38
2021/07/18 06:58:45;;;;;;;4.85;1.70;;;;;;;;;;4974569;28;20102;-38
2021/07/18 07:01:11;;;;;;;3.97;1.40;;;;;;;;;;4989791;28;20053;-38
2021/07/18 07:03:36;;;;;;;4.72;1.88;;;;;;;;;;4988161;28;20046;-40
2021/07/18 07:06:02;;;;;;;5.43;1.80;;;;;;;;;;4979243;28;20052;-41
2021/07/18 07:08:29;;;;;;;3.20;1.40;;;;;;;;;;4973704;28;20027;-40
2021/07/18 07:10:54;;;;;;;3.33;1.67;;;;;;;;;;4980828;28;20035;-39
2021/07/18 07:13:20;;;;;;;4.13;1.45;;;;;;;;;;4980874;28;20037;-40
2021/07/18 07:15:45;;;;;;;3.78;1.55;;;;;;;;;;4986467;28;20032;-40
2021/07/18 07:18:11;;;;;;;5.28;1.60;;;;;;;;;;4986947;28;20604;-40
2021/07/18 07:20:36;;;;;;;5.35;1.65;;;;;;;;;;4974758;28;20023;-41
2021/07/18 07:23:02;;;;;;;8.80;2.17;;;;;;;;;;4950636;28;20023;-37
2021/07/18 07:25:27;;;;;;;5.18;2.03;;;;;;;;;;4968011;28;20084;-40
2021/07/18 07:27:52;;;;;;;3.75;1.52;;;;;;;;;;4966690;28;20022;-36
2021/07/18 07:30:18;;;;;;;5.50;1.92;;;;;;;;;;4969862;28;20030;-37
2021/07/18 07:32:45;;;;;;;6.35;1.98;;;;;;;;;;4969748;28;20023;-38
2021/07/18 07:35:15;;;;;;;4.00;1.98;;;;;;;;;;4969314;28;20039;-37
2021/07/18 07:37:44;;;;;;;4.22;1.75;;;;;;;;;;4969085;28;20471;-38
2021/07/18 07:40:13;;;;;;;3.40;1.75;;;;;;;;;;4968953;28;20038;-37
2021/07/18 07:42:39;;;;;;;4.53;2.08;;;;;;;;;;4968686;28;20043;-39
2021/07/18 07:45:05;;;;;;;3.55;1.73;;;;;;;;;;4974098;28;20097;-38
2021/07/18 07:47:30;;;;;;;4.25;2.08;;;;;;;;;;4987748;28;20037;-39
2021/07/18 07:49:56;;;;;;;6.07;2.40;;;;;;;;;;4984789;28;20027;-38
2021/07/18 07:52:22;;;;;;;4.85;1.88;;;;;;;;;;4968654;28;20106;-40
2021/07/18 07:54:47;;;;;;;5.65;1.95;;;;;;;;;;4968594;28;20054;-41
2021/07/18 07:57:13;;;;;;;6.00;2.15;;;;;;;;;;4974358;28;20026;-37
2021/07/18 07:59:38;;;;;;;3.75;1.90;;;;;;;;;;4984101;28;20026;-39
2021/07/18 08:02:03;;;;;;;4.55;2.00;;;;;;;;;;4974436;28;20053;-43
2021/07/18 08:04:29;;;;;;;5.43;2.17;;;;;;;;;;4966266;28;20109;-37
2021/07/18 08:06:55;;;;;;;5.55;1.60;;;;;;;;;;4979029;28;20066;-38
2021/07/18 08:09:20;;;;;;;6.25;2.00;;;;;;;;;;4969867;28;20030;-44
2021/07/18 08:11:46;;;;;;;5.88;1.90;;;;;;;;;;4959088;28;20030;-40
2021/07/18 08:14:12;;;;;;;5.05;2.10;;;;;;;;;;4978505;28;20105;-42
2021/07/18 08:16:38;;;;;;;4.35;1.92;;;;;;;;;;4973948;28;20597;-38
2021/07/18 08:19:03;;;;;;;4.28;2.13;;;;;;;;;;4984924;28;20041;-37
2021/07/18 08:21:29;;;;;;;8.13;2.00;;;;;;;;;;4974529;28;20034;-39
2021/07/18 08:23:54;;;;;;;4.00;1.83;;;;;;;;;;4980739;28;20096;-37
2021/07/18 08:26:22;;;;;;;3.50;1.83;;;;;;;;;;4978219;28;20039;-38
2021/07/18 08:28:48;;;;;;;6.13;1.95;;;;;;;;;;4965557;28;20033;-37
2021/07/18 08:31:14;;;;;;;5.95;1.90;;;;;;;;;;4981478;28;20023;-37
2021/07/18 08:33:40;;;;;;;4.95;1.80;;;;;;;;;;4965082;28;20062;-37
2021/07/18 08:36:06;;;;;;;5.35;2.03;;;;;;;;;;4979047;28;20433;-38
2021/07/18 08:38:31;;;;;;;6.78;1.80;;;;;;;;;;4966817;28;20037;-37
2021/07/18 08:40:59;;;;;;;4.75;2.08;;;;;;;;;;4966306;28;20129;-37
2021/07/18 08:43:24;;;;;;;5.30;1.90;;;;;;;;;;4966187;28;20497;-39
2021/07/18 08:45:50;;;;;;;4.25;1.58;;;;;;;;;;4974677;28;20109;-37
2021/07/18 08:48:16;;;;;;;7.43;1.80;;;;;;;;;;4953116;28;20023;-38
2021/07/18 08:50:41;;;;;;;4.85;1.80;;;;;;;;;;4958488;28;20518;-37
2021/07/18 08:53:07;;;;;;;5.13;1.88;;;;;;;;;;4967703;28;20023;-37
2021/07/18 08:55:33;;;;;;;5.15;2.00;;;;;;;;;;4977286;28;20057;-46
2021/07/18 08:57:58;;;;;;;5.40;1.70;;;;;;;;;;4976564;28;20049;-48
2021/07/18 09:00:24;;;;;;;3.25;1.60;;;;;;;;;;4968241;28;20022;-43
2021/07/18 09:02:50;;;;;;;5.55;1.92;;;;;;;;;;4975165;28;20041;-48
2021/07/18 09:05:16;;;;;;;5.35;1.83;;;;;;;;;;4970712;28;20018;-47
2021/07/18 09:07:53;;;;;;;4.93;1.95;;;;;;;;;;4972557;28;20034;-49
2021/07/18 09:10:26;;;;;;;4.53;2.00;;;;;;;;;;4964201;28;20026;-45
2021/07/18 09:13:21;;;;;;;3.95;1.98;;;;;;;;;;4948337;28;20023;-45
2021/07/18 09:15:47;;;;;;;6.40;2.45;;;;;;;;;;4940027;28;20193;-45
2021/07/18 09:18:15;;;;;;;6.88;1.90;;;;;;;;;;4948670;28;20035;-43
2021/07/18 09:20:46;;;;;;;5.75;2.10;;;;;;;;;;4947749;28;20027;-45
2021/07/18 09:23:19;;;;;;;3.83;1.80;;;;;;;;;;4954940;28;20026;-44
2021/07/18 09:25:46;;;;;;;5.95;1.88;;;;;;;;;;4972155;28;20133;-45
2021/07/18 09:28:20;;;;;;;3.28;1.63;;;;;;;;;;4954268;28;20034;-46
2021/07/18 09:30:47;;;;;;;7.03;1.98;;;;;;;;;;4978467;28;20100;-50
2021/07/18 09:33:29;;;;;;;5.05;2.33;;;;;;;;;;4975247;28;20026;-49
2021/07/18 09:36:11;;;;;;;5.43;2.50;;;;;;;;;;4980879;28;20046;-52
2021/07/18 09:38:37;;;;;;;4.63;1.95;;;;;;;;;;4969846;28;20050;-50
2021/07/18 09:41:03;;;;;;;5.07;2.00;;;;;;;;;;4964167;28;20913;-52
2021/07/18 09:43:29;;;;;;;4.65;2.15;;;;;;;;;;4977630;28;20101;-48
2021/07/18 09:46:00;;;;;;;5.25;2.00;;;;;;;;;;4964752;28;20509;-48
2021/07/18 09:48:39;;;;;;;;;;;;;;;;;;4978197;28;20037;-53
2021/07/18 09:51:12;;;;;;;4.75;2.10;;;;;;;;;;4974190;28;20032;-50
2021/07/18 09:53:39;;;;;;;5.70;2.05;;;;;;;;;;4978072;28;20797;-43
2021/07/18 09:56:09;;;;;;;4.63;1.90;;;;;;;;;;4978782;28;20534;-41
2021/07/18 09:58:50;;;;;;;4.60;1.92;;;;;;;;;;4967022;28;20155;-42
2021/07/18 10:01:17;;;;;;;5.97;1.95;;;;;;;;;;4977577;28;20023;-38
2021/07/18 10:03:46;;;;;;;4.25;1.83;;;;;;;;;;4971424;28;20332;-38
2021/07/18 10:06:18;;;;;;;5.57;3.30;;;;;;;;;;4977757;28;20038;-39
2021/07/18 10:08:45;;;;;;;6.55;2.13;;;;;;;;;;4971486;28;20023;-39
2021/07/18 10:11:13;;;;;;;9.05;2.30;;;;;;;;;;4977156;28;20030;-43
2021/07/18 10:13:40;;;;;;;6.20;2.10;;;;;;;;;;4964901;28;20027;-39
2021/07/18 10:16:07;;;;;;;4.53;2.50;;;;;;;;;;4992479;28;20030;-38
2021/07/18 10:18:35;;;;;;;4.40;1.85;;;;;;;;;;4964836;28;20046;-41
2021/07/18 10:21:00;;;;;;;5.53;2.30;;;;;;;;;;4978013;28;20112;-37
2021/07/18 10:24:56;;;;;;;4.25;1.80;;;;;;;;;;5061705;28;20420;-78
2021/07/18 10:27:22;;;;;;;6.22;1.67;;;;;;;;;;5048984;28;20563;-78
